createdAt,value
2018-01-10T00:02:05.383Z,100894.50
2018-01-10T00:04:31.983Z,100893.07
2018-01-10T00:06:58.251Z,100886.47
2018-01-10T00:09:24.517Z,100885.13
2018-01-10T00:11:50.759Z,100886.38
2018-01-10T00:14:16.996Z,100877.45
2018-01-10T00:16:43.256Z,100881.41
2018-01-10T00:19:09.513Z,100876.40
2018-01-10T00:21:35.772Z,100876.38
2018-01-10T00:24:02.039Z,100874.96
2018-01-10T00:26:28.319Z,100875.50
2018-01-10T00:28:54.579Z,100870.97
2018-01-10T00:31:20.840Z,100869.03
2018-01-10T00:33:47.096Z,100866.36
2018-01-10T00:36:13.351Z,100863.13
2018-01-10T00:38:40.329Z,100861.69
2018-01-10T00:41:06.564Z,100863.58
2018-01-10T00:43:32.807Z,100853.11
2018-01-10T00:45:59.045Z,100851.34
2018-01-10T00:48:25.295Z,100847.94
2018-01-10T00:50:51.542Z,100852.34
2018-01-10T00:53:17.783Z,100847.21
2018-01-10T00:55:44.021Z,100842.00
2018-01-10T00:58:10.262Z,100853.25
2018-01-10T01:00:37.255Z,100850.46
2018-01-10T01:03:03.497Z,100848.91
2018-01-10T01:05:29.776Z,100846.89
2018-01-10T01:07:56.016Z,100847.97
2018-01-10T01:10:23.003Z,100836.16
2018-01-10T01:12:49.242Z,100836.67
2018-01-10T01:15:15.492Z,100835.48
2018-01-10T01:17:41.740Z,100828.41
2018-01-10T01:20:08.001Z,100836.47
2018-01-10T01:22:34.240Z,100832.08
2018-01-10T01:25:01.658Z,100831.38
2018-01-10T01:27:27.909Z,100833.71
2018-01-10T01:29:54.172Z,100838.66
2018-01-10T01:32:21.178Z,100836.52
2018-01-10T01:34:47.424Z,100839.22
2018-01-10T01:37:13.665Z,100839.83
2018-01-10T01:39:39.913Z,100845.69
2018-01-10T01:42:06.153Z,100841.29
2018-01-10T01:44:32.418Z,100840.34
2018-01-10T01:46:58.664Z,100841.86
2018-01-10T01:49:25.138Z,100834.41
2018-01-10T01:51:51.372Z,100839.70
2018-01-10T01:54:17.614Z,100841.04
2018-01-10T01:56:43.865Z,100841.16
2018-01-10T01:59:10.126Z,100844.27
2018-01-10T02:01:37.231Z,100844.35
2018-01-10T02:04:03.489Z,100839.14
2018-01-10T02:06:29.740Z,100840.05
2018-01-10T02:08:56.724Z,100832.59
2018-01-10T02:11:22.979Z,100832.63
2018-01-10T02:13:49.227Z,100833.84
2018-01-10T02:16:15.464Z,100833.06
2018-01-10T02:18:41.716Z,100828.67
2018-01-10T02:21:07.961Z,100835.99
2018-01-10T02:23:34.943Z,100840.04
2018-01-10T02:26:01.184Z,100842.88
2018-01-10T02:28:27.464Z,100841.94
2018-01-10T02:30:53.717Z,100839.36
2018-01-10T02:33:20.710Z,100839.44
2018-01-10T02:35:46.968Z,100834.14
2018-01-10T02:38:13.212Z,100835.34
2018-01-10T02:40:39.461Z,100834.53
2018-01-10T02:43:06.448Z,100830.56
2018-01-10T02:45:32.700Z,100829.39
2018-01-10T02:47:58.947Z,100825.34
2018-01-10T02:50:25.198Z,100832.02
2018-01-10T02:52:51.440Z,100823.55
2018-01-10T02:55:17.682Z,100821.86
2018-01-10T02:57:43.917Z,100825.05
2018-01-10T03:00:10.188Z,100821.08
2018-01-10T03:02:36.436Z,100823.48
2018-01-10T03:05:02.696Z,100822.58
2018-01-10T03:07:28.967Z,100828.78
2018-01-10T03:09:55.964Z,100822.70
2018-01-10T03:12:22.220Z,100815.34
2018-01-10T03:14:48.493Z,100819.08
2018-01-10T03:17:15.482Z,100812.67
2018-01-10T03:19:41.748Z,100816.28
2018-01-10T03:22:07.991Z,100811.80
2018-01-10T03:24:34.640Z,100814.44
2018-01-10T03:27:01.384Z,100809.27
2018-01-10T03:29:27.631Z,100815.98
2018-01-10T03:31:54.630Z,100809.77
2018-01-10T03:34:20.881Z,100807.55
2018-01-10T03:36:47.120Z,100810.55
2018-01-10T03:39:13.362Z,100809.61
2018-01-10T03:41:39.621Z,100807.11
2018-01-10T03:44:06.614Z,100802.89
2018-01-10T03:46:32.858Z,100809.56
2018-01-10T03:48:59.107Z,100808.86
2018-01-10T03:51:25.347Z,100804.61
2018-01-10T03:53:51.636Z,100805.98
2018-01-10T03:56:17.891Z,100797.63
2018-01-10T03:58:44.148Z,100798.97
2018-01-10T04:01:10.397Z,100800.90
2018-01-10T04:03:36.638Z,100800.42
2018-01-10T04:06:03.647Z,100801.67
2018-01-10T04:08:29.905Z,100804.51
2018-01-10T04:10:56.156Z,100809.50
2018-01-10T04:13:22.396Z,100802.95
2018-01-10T04:15:49.397Z,100800.72
2018-01-10T04:18:15.630Z,100807.30
2018-01-10T04:20:41.869Z,100808.25
2018-01-10T04:23:08.116Z,100803.89
2018-01-10T04:25:34.373Z,100803.30
2018-01-10T04:28:00.628Z,100805.54
2018-01-10T04:30:27.624Z,100803.81
2018-01-10T04:32:53.879Z,100800.80
2018-01-10T04:35:20.121Z,100801.14
2018-01-10T04:37:46.383Z,100803.89
2018-01-10T04:40:13.374Z,100798.56
2018-01-10T04:42:39.666Z,100800.96
2018-01-10T04:45:05.892Z,100800.48
2018-01-10T04:47:32.900Z,100805.48
2018-01-10T04:49:59.145Z,100799.67
2018-01-10T04:52:25.383Z,100799.97
2018-01-10T04:54:51.624Z,100803.29
2018-01-10T04:57:17.899Z,100798.77
2018-01-10T04:59:44.149Z,100801.95
2018-01-10T05:02:10.396Z,100802.38
2018-01-10T05:04:36.681Z,100802.38
2018-01-10T05:07:02.923Z,100798.94
2018-01-10T05:09:29.915Z,100797.09
2018-01-10T05:11:56.169Z,100795.80
2018-01-10T05:14:22.408Z,100802.08
2018-01-10T05:16:48.652Z,100803.53
2018-01-10T05:19:15.201Z,100801.30
2018-01-10T05:21:41.469Z,100803.14
2018-01-10T05:24:07.712Z,100798.41
2018-01-10T05:26:33.965Z,100798.91
2018-01-10T05:29:00.218Z,100794.60
2018-01-10T05:31:26.496Z,100791.73
2018-01-10T05:33:53.493Z,100788.08
2018-01-10T05:36:19.762Z,100788.16
2018-01-10T05:38:45.996Z,100787.77
2018-01-10T05:41:12.239Z,100784.50
2018-01-10T05:43:38.689Z,100783.34
2018-01-10T05:46:05.688Z,100782.73
2018-01-10T05:48:31.941Z,100791.65
2018-01-10T05:50:58.215Z,100792.63
2018-01-10T05:53:25.212Z,100789.27
2018-01-10T05:55:51.481Z,100788.80
2018-01-10T05:58:17.727Z,100784.28
2018-01-10T06:00:44.721Z,100785.27
2018-01-10T06:03:10.964Z,100781.22
2018-01-10T06:05:37.232Z,100784.48
2018-01-10T06:08:03.495Z,100781.65
2018-01-10T06:10:29.783Z,100784.91
2018-01-10T06:12:56.020Z,100783.19
2018-01-10T06:15:22.600Z,100789.03
2018-01-10T06:17:49.605Z,100784.91
2018-01-10T06:20:15.896Z,100781.30
2018-01-10T06:22:42.864Z,100791.09
2018-01-10T06:25:09.114Z,100784.27
2018-01-10T06:27:35.378Z,100783.51
2018-01-10T06:30:01.635Z,100780.94
2018-01-10T06:32:28.612Z,100781.55
2018-01-10T06:34:54.847Z,100781.94
2018-01-10T06:37:21.081Z,100780.20
2018-01-10T06:39:47.328Z,100778.52
2018-01-10T06:42:13.577Z,100770.15
2018-01-10T06:44:39.865Z,100773.17
2018-01-10T06:47:06.860Z,100769.42
2018-01-10T06:49:33.096Z,100771.23
2018-01-10T06:51:59.359Z,100768.55
2018-01-10T06:54:25.592Z,100771.64
2018-01-10T06:56:51.865Z,100768.34
2018-01-10T06:59:18.108Z,100770.06
2018-01-10T07:01:44.349Z,100772.06
2018-01-10T07:04:10.596Z,100777.11
2018-01-10T07:06:36.843Z,100771.14
2018-01-10T07:09:03.171Z,100772.86
2018-01-10T07:11:29.427Z,100772.91
2018-01-10T07:13:55.672Z,100766.02
2018-01-10T07:16:21.920Z,100772.49
2018-01-10T07:18:48.911Z,100774.34
2018-01-10T07:21:15.152Z,100775.64
2018-01-10T07:23:41.404Z,100781.76
2018-01-10T07:26:07.677Z,100778.36
2018-01-10T07:28:34.673Z,100783.08
2018-01-10T07:31:00.948Z,100785.59
2018-01-10T07:33:27.211Z,100788.05
2018-01-10T07:35:53.498Z,100794.34
2018-01-10T07:38:19.733Z,100789.47
2018-01-10T07:40:45.998Z,100794.81
2018-01-10T07:43:12.997Z,100798.40
2018-01-10T07:45:39.252Z,100798.27
2018-01-10T07:48:05.504Z,100794.86
2018-01-10T07:50:31.751Z,100793.06
2018-01-10T07:52:58.009Z,100791.52
2018-01-10T07:55:24.660Z,100784.56
2018-01-10T07:57:50.956Z,100793.34
2018-01-10T08:00:17.259Z,100793.53
2018-01-10T08:02:43.517Z,100793.14
2018-01-10T08:05:09.772Z,100796.33
2018-01-10T08:07:36.030Z,100790.68
2018-01-10T08:10:02.283Z,100798.36
2018-01-10T08:12:28.537Z,100796.55
2018-01-10T08:14:54.818Z,100798.91
2018-01-10T08:17:21.055Z,100796.14
2018-01-10T08:19:48.053Z,100793.80
2018-01-10T08:22:14.306Z,100803.91
2018-01-10T08:24:40.566Z,100805.95
2018-01-10T08:27:06.825Z,100799.27
2018-01-10T08:29:33.076Z,100801.42
2018-01-10T08:31:59.333Z,100807.91
2018-01-10T08:34:25.606Z,100811.40
2018-01-10T08:36:52.607Z,100814.07
2018-01-10T08:39:18.867Z,100809.59
2018-01-10T08:41:45.168Z,100811.80
2018-01-10T08:44:11.427Z,100816.72
2018-01-10T08:46:37.686Z,100816.67
2018-01-10T08:49:04.059Z,100819.53
2018-01-10T08:51:30.325Z,100821.92
2018-01-10T08:53:56.581Z,100821.06
2018-01-10T08:56:22.828Z,100820.87
2018-01-10T08:58:49.084Z,100822.44
2018-01-10T09:01:15.347Z,100823.48
2018-01-10T09:03:41.616Z,100822.11
2018-01-10T09:06:07.864Z,100821.48
2018-01-10T09:08:34.110Z,100824.80
2018-01-10T09:11:01.105Z,100828.38
2018-01-10T09:13:27.377Z,100829.62
2018-01-10T09:15:53.616Z,100825.72
2018-01-10T09:18:19.869Z,100825.90
2018-01-10T09:20:46.873Z,100827.27
2018-01-10T09:23:13.156Z,100828.36
2018-01-10T09:25:40.145Z,100828.56
2018-01-10T09:28:06.404Z,100828.48
2018-01-10T09:30:32.665Z,100830.00
2018-01-10T09:32:58.925Z,100825.52
2018-01-10T09:35:25.189Z,100828.37
2018-01-10T09:37:51.455Z,100833.72
2018-01-10T09:40:17.709Z,100831.25
2018-01-10T09:42:43.969Z,100836.13
2018-01-10T09:45:10.222Z,100832.02
2018-01-10T09:47:36.476Z,100833.66
2018-01-10T09:50:02.712Z,100833.84
2018-01-10T09:52:28.982Z,100836.06
2018-01-10T09:54:55.244Z,100837.10
2018-01-10T09:57:21.521Z,100841.59
2018-01-10T09:59:47.760Z,100838.95
2018-01-10T10:02:14.028Z,100844.35
2018-01-10T10:04:41.031Z,100840.20
2018-01-10T10:07:07.324Z,100829.47
2018-01-10T10:09:34.330Z,100837.02
2018-01-10T10:12:00.607Z,100835.20
2018-01-10T10:14:27.602Z,100838.30
2018-01-10T10:16:53.848Z,100833.80
2018-01-10T10:19:20.126Z,100842.64
2018-01-10T10:21:47.113Z,100840.07
2018-01-10T10:24:13.370Z,100837.77
2018-01-10T10:26:39.636Z,100838.63
2018-01-10T10:29:06.637Z,100836.52
2018-01-10T10:31:32.895Z,100839.69
2018-01-10T10:33:59.148Z,100834.28
2018-01-10T10:36:25.406Z,100840.27
2018-01-10T10:38:52.403Z,100835.02
2018-01-10T10:41:18.649Z,100838.46
2018-01-10T10:43:44.892Z,100840.39
2018-01-10T10:46:11.145Z,100833.04
2018-01-10T10:48:38.154Z,100833.37
2018-01-10T10:51:04.453Z,100829.16
2018-01-10T10:53:30.702Z,100824.88
2018-01-10T10:55:56.943Z,100825.39
2018-01-10T10:58:23.192Z,100823.42
2018-01-10T11:00:49.452Z,100820.98
2018-01-10T11:03:15.748Z,100812.70
2018-01-10T11:05:41.995Z,100815.42
2018-01-10T11:08:08.283Z,100817.08
2018-01-10T11:10:35.274Z,100820.05
2018-01-10T11:13:01.531Z,100815.05
2018-01-10T11:15:27.785Z,100810.92
2018-01-10T11:17:54.028Z,100809.27
2018-01-10T11:20:20.278Z,100812.41
2018-01-10T11:22:47.273Z,100809.08
2018-01-10T11:25:13.516Z,100810.07
2018-01-10T11:27:39.839Z,100811.66
2018-01-10T11:30:06.089Z,100812.28
2018-01-10T11:32:32.353Z,100810.68
2018-01-10T11:34:59.352Z,100807.64
2018-01-10T11:37:25.609Z,100808.83
2018-01-10T11:39:51.867Z,100801.47
2018-01-10T11:42:18.114Z,100794.28
2018-01-10T11:44:45.096Z,100797.03
2018-01-10T11:47:11.354Z,100791.66
2018-01-10T11:49:37.603Z,100793.77
2018-01-10T11:52:03.845Z,100792.04
2018-01-10T11:54:30.092Z,100789.89
2018-01-10T11:56:56.357Z,100786.55
2018-01-10T11:59:22.623Z,100782.86
2018-01-10T12:01:48.898Z,100778.22
2018-01-10T12:04:15.156Z,100777.98
2018-01-10T12:06:41.422Z,100782.26
2018-01-10T12:09:07.652Z,100777.81
2018-01-10T12:11:33.890Z,100777.56
2018-01-10T12:14:00.169Z,100778.58
2018-01-10T12:16:26.426Z,100775.94
2018-01-10T12:18:53.425Z,100769.97
2018-01-10T12:21:19.726Z,100774.12
2018-01-10T12:23:45.986Z,100771.59
2018-01-10T12:26:12.254Z,100773.88
2018-01-10T12:28:38.525Z,100772.22
2018-01-10T12:31:04.793Z,100770.43
2018-01-10T12:33:31.052Z,100768.20
2018-01-10T12:35:57.318Z,100770.66
2018-01-10T12:38:24.311Z,100769.84
2018-01-10T12:40:50.565Z,100768.70
2018-01-10T12:43:16.856Z,100764.46
2018-01-10T12:45:43.107Z,100762.80
2018-01-10T12:48:09.376Z,100755.87
2018-01-10T12:50:35.657Z,100757.66
2018-01-10T12:53:01.914Z,100759.29
2018-01-10T12:55:28.166Z,100763.42
2018-01-10T12:57:54.439Z,100761.16
2018-01-10T13:00:21.648Z,100761.64
2018-01-10T13:02:47.901Z,100751.18
2018-01-10T13:05:14.180Z,100752.84
2018-01-10T13:07:41.211Z,100750.47
2018-01-10T13:10:08.216Z,100755.64
2018-01-10T13:12:34.484Z,100756.82
2018-01-10T13:15:00.763Z,100754.81
2018-01-10T13:17:27.013Z,100757.00
2018-01-10T13:19:53.282Z,100750.41
2018-01-10T13:22:19.556Z,100750.27
2018-01-10T13:24:46.549Z,100751.09
2018-01-10T13:27:12.816Z,100751.23
2018-01-10T13:29:39.080Z,100749.37
2018-01-10T13:32:05.354Z,100757.09
2018-01-10T13:34:31.629Z,100757.57
2018-01-10T13:36:58.620Z,100760.52
2018-01-10T13:39:24.874Z,100762.09
2018-01-10T13:41:51.151Z,100763.85
2018-01-10T13:44:18.168Z,100764.76
2018-01-10T13:46:44.420Z,100755.50
2018-01-10T13:49:10.655Z,100768.34
2018-01-10T13:51:36.911Z,100764.95
2018-01-10T13:54:03.907Z,100765.28
2018-01-10T13:56:30.149Z,100761.03
2018-01-10T13:58:56.419Z,100762.80
2018-01-10T14:01:22.673Z,100765.18
2018-01-10T14:03:49.690Z,100773.45
2018-01-10T14:06:15.951Z,100771.64
2018-01-10T14:08:42.961Z,100772.41
2018-01-10T14:11:09.205Z,100777.21
2018-01-10T14:13:35.458Z,100774.90
2018-01-10T14:16:01.714Z,100777.19
2018-01-10T14:18:28.835Z,100779.20
2018-01-10T14:20:55.112Z,100779.68
2018-01-10T14:23:21.400Z,100781.27
2018-01-10T14:25:47.665Z,100780.18
2018-01-10T14:28:14.705Z,100780.43
2018-01-10T14:30:40.960Z,100784.91
2018-01-10T14:33:07.986Z,100784.81
2018-01-10T14:35:34.302Z,100787.92
2018-01-10T14:38:00.565Z,100788.83
2018-01-10T14:40:26.820Z,100784.44
2018-01-10T14:42:53.862Z,100789.41
2018-01-10T14:45:20.109Z,100788.02
2018-01-10T14:47:46.376Z,100783.67
2018-01-10T14:50:12.664Z,100789.20
2018-01-10T14:52:39.665Z,100786.19
2018-01-10T14:55:06.267Z,100784.98
2018-01-10T14:57:32.540Z,100784.21
2018-01-10T14:59:58.804Z,100787.31
2018-01-10T15:02:25.102Z,100787.81
2018-01-10T15:04:51.360Z,100787.48
2018-01-10T15:07:17.672Z,100787.16
2018-01-10T15:09:43.989Z,100798.85
2018-01-10T15:12:10.236Z,100799.80
2018-01-10T15:14:36.487Z,100797.80
2018-01-10T15:17:02.761Z,100802.75
2018-01-10T15:19:29.063Z,100803.75
2018-01-10T15:21:55.320Z,100812.74
2018-01-10T15:24:21.598Z,100811.46
2018-01-10T15:26:47.863Z,100814.56
2018-01-10T15:29:14.121Z,100813.62
2018-01-10T15:31:40.413Z,100812.52
2018-01-10T15:34:07.396Z,100822.42
2018-01-10T15:36:33.685Z,100822.27
2018-01-10T15:39:00.751Z,100822.89
2018-01-10T15:41:27.064Z,100826.38
2018-01-10T15:43:53.297Z,100826.52
2018-01-10T15:46:20.345Z,100824.56
2018-01-10T15:48:47.353Z,100825.16
2018-01-10T15:51:13.653Z,100831.66
2018-01-10T15:53:39.946Z,100837.68
2018-01-10T15:56:06.231Z,100836.10
2018-01-10T15:58:32.555Z,100841.70
2018-01-10T16:00:59.272Z,100842.46
2018-01-10T16:03:25.539Z,100842.84
2018-01-10T16:05:51.817Z,100846.63
2018-01-10T16:08:18.092Z,100845.19
2018-01-10T16:10:45.101Z,100854.33
2018-01-10T16:13:11.370Z,100854.59
2018-01-10T16:15:37.648Z,100863.22
2018-01-10T16:18:03.912Z,100861.07
2018-01-10T16:20:30.183Z,100863.75
2018-01-10T16:22:57.217Z,100866.52
2018-01-10T16:25:23.490Z,100867.96
2018-01-10T16:27:49.783Z,100871.22
2018-01-10T16:30:16.061Z,100869.20
2018-01-10T16:32:42.315Z,100878.63
2018-01-10T16:35:08.650Z,100871.73
2018-01-10T16:37:34.936Z,100872.27
2018-01-10T16:40:01.693Z,100879.20
2018-01-10T16:42:28.720Z,100881.78
2018-01-10T16:44:55.032Z,100875.56
2018-01-10T16:47:21.310Z,100881.16
2018-01-10T16:49:47.622Z,100884.34
2018-01-10T16:52:13.928Z,100888.83
2018-01-10T16:54:40.192Z,100889.86
2018-01-10T16:57:06.505Z,100889.47
2018-01-10T16:59:32.898Z,100893.06
2018-01-10T17:01:59.949Z,100894.84
2018-01-10T17:04:26.977Z,100898.48
2018-01-10T17:06:53.280Z,100898.90
2018-01-10T17:09:19.539Z,100895.84
2018-01-10T17:11:45.800Z,100893.23
2018-01-10T17:14:12.081Z,100905.91
2018-01-10T17:16:38.431Z,100897.92
2018-01-10T17:19:05.072Z,100896.62
2018-01-10T17:21:32.172Z,100901.28
2018-01-10T17:23:59.197Z,100909.85
2018-01-10T17:26:25.462Z,100907.83
2018-01-10T17:28:52.516Z,100912.73
2018-01-10T17:31:19.536Z,100910.55
2018-01-10T17:33:45.823Z,100910.48
2018-01-10T17:36:12.093Z,100921.64
2018-01-10T17:38:38.391Z,100912.33
2018-01-10T17:41:04.691Z,100911.41
2018-01-10T17:43:31.001Z,100912.41
2018-01-10T17:45:57.307Z,100914.91
2018-01-10T17:48:23.588Z,100918.97
2018-01-10T17:50:49.899Z,100920.60
2018-01-10T17:53:16.281Z,100921.33
2018-01-10T17:55:43.324Z,100928.17
2018-01-10T17:58:09.601Z,100924.12
2018-01-10T18:00:35.912Z,100923.12
2018-01-10T18:03:03.238Z,100929.95
2018-01-10T18:05:29.576Z,100939.03
2018-01-10T18:07:56.593Z,100940.72
2018-01-10T18:10:22.848Z,100947.49
2018-01-10T18:12:49.150Z,100940.08
2018-01-10T18:15:15.428Z,100943.02
2018-01-10T18:17:41.770Z,100945.12
2018-01-10T18:20:08.107Z,100947.27
2018-01-10T18:22:34.366Z,100944.27
2018-01-10T18:25:01.394Z,100959.09
2018-01-10T18:27:27.683Z,100954.44
2018-01-10T18:29:53.954Z,100951.50
2018-01-10T18:32:20.271Z,100951.85
2018-01-10T18:34:46.585Z,100954.44
2018-01-10T18:37:12.879Z,100961.12
2018-01-10T18:39:39.164Z,100959.23
2018-01-10T18:42:05.470Z,100962.89
2018-01-10T18:44:32.498Z,100965.83
2018-01-10T18:46:58.862Z,100966.22
2018-01-10T18:49:25.930Z,100967.25
2018-01-10T18:51:52.217Z,100972.34
2018-01-10T18:54:18.524Z,100968.84
2018-01-10T18:56:44.833Z,100967.73
2018-01-10T18:59:11.091Z,100976.74
2018-01-10T19:01:37.380Z,100981.44
2018-01-10T19:04:03.764Z,100983.86
2018-01-10T19:06:30.050Z,100979.16
2018-01-10T19:08:56.404Z,100979.63
2018-01-10T19:11:23.477Z,100983.89
2018-01-10T19:29:49.565Z,100980.92
2018-01-10T19:32:16.605Z,100977.02
2018-01-10T19:34:42.916Z,100977.53
2018-01-10T19:37:09.192Z,100978.91
2018-01-10T19:39:36.202Z,100989.06
2018-01-10T19:42:02.835Z,100980.97
2018-01-10T19:44:29.169Z,100981.06
2018-01-10T19:46:55.451Z,100981.64
2018-01-10T19:49:21.736Z,100985.42
2018-01-10T19:51:48.058Z,100982.30
2018-01-10T19:54:14.338Z,100985.92
2018-01-10T19:56:40.615Z,100985.61
2018-01-10T19:59:06.900Z,100988.72
2018-01-10T20:01:33.172Z,100994.06
2018-01-10T20:04:00.203Z,100991.95
2018-01-10T20:06:26.485Z,100997.10
2018-01-10T20:08:52.792Z,100997.47
2018-01-10T20:11:19.836Z,100997.44
2018-01-10T20:13:46.145Z,101007.77
2018-01-10T20:16:12.453Z,101009.33
2018-01-10T20:18:38.751Z,101016.15
2018-01-10T20:21:05.787Z,101014.69
2018-01-10T20:23:32.125Z,101019.41
2018-01-10T20:25:58.427Z,101021.55
2018-01-10T20:28:24.740Z,101017.37
2018-01-10T20:30:50.997Z,101024.66
2018-01-10T20:33:17.341Z,101027.85
2018-01-10T20:35:43.608Z,101023.15
2018-01-10T20:38:09.893Z,101024.66
2018-01-10T20:40:36.177Z,101022.62
2018-01-10T20:43:02.441Z,101026.20
2018-01-10T20:45:28.716Z,101031.62
2018-01-10T20:47:54.983Z,101029.13
2018-01-10T20:50:21.281Z,101031.92
2018-01-10T20:52:47.702Z,101027.18
2018-01-10T20:55:13.998Z,101030.33
2018-01-10T20:57:41.033Z,101031.78
2018-01-10T21:00:07.330Z,101036.35
2018-01-10T21:02:33.612Z,101035.14
2018-01-10T21:04:59.873Z,101042.21
2018-01-10T21:07:26.195Z,101046.27
2018-01-10T21:09:53.292Z,101048.98
2018-01-10T21:12:19.566Z,101051.56
2018-01-10T21:14:45.853Z,101052.91
2018-01-10T21:17:12.107Z,101043.51
2018-01-10T21:19:38.384Z,101043.23
2018-01-10T21:22:04.660Z,101045.60
2018-01-10T21:24:30.929Z,101043.55
2018-01-10T21:26:57.212Z,101041.58
2018-01-10T21:29:23.494Z,101039.45
2018-01-10T21:31:49.795Z,101051.84
2018-01-10T21:34:16.085Z,101048.42
2018-01-10T21:36:42.378Z,101051.95
2018-01-10T21:39:08.675Z,101048.77
2018-01-10T21:41:36.047Z,101046.73
2018-01-10T21:44:02.327Z,101048.59
2018-01-10T21:46:28.592Z,101049.09
2018-01-10T21:48:54.912Z,101051.50
2018-01-10T21:51:21.259Z,101057.83
2018-01-10T21:53:47.537Z,101059.68
2018-01-10T21:56:13.866Z,101062.05
2018-01-10T21:58:40.143Z,101055.97
2018-01-10T22:01:06.451Z,101058.33
2018-01-10T22:03:32.774Z,101053.84
2018-01-10T22:05:59.755Z,101059.19
2018-01-10T22:08:26.066Z,101057.89
2018-01-10T22:10:52.342Z,101061.94
2018-01-10T22:13:18.616Z,101063.75
2018-01-10T22:15:45.665Z,101067.33
2018-01-10T22:18:12.668Z,101071.02
2018-01-10T22:20:38.940Z,101074.59
2018-01-10T22:23:05.213Z,101069.25
2018-01-10T22:25:31.536Z,101069.73
2018-01-10T22:27:57.870Z,101073.27
2018-01-10T22:30:24.144Z,101076.33
2018-01-10T22:32:50.412Z,101080.89
2018-01-10T22:35:16.685Z,101081.05
2018-01-10T22:37:42.976Z,101083.25
2018-01-10T22:40:09.264Z,101082.42
2018-01-10T22:42:35.534Z,101087.72
2018-01-10T22:45:01.779Z,101087.77
2018-01-10T22:47:28.050Z,101090.95
2018-01-10T22:49:54.339Z,101081.20
2018-01-10T22:52:20.655Z,101084.78
2018-01-10T22:54:46.908Z,101088.23
2018-01-10T22:57:13.207Z,101081.64
2018-01-10T22:59:39.474Z,101082.58
2018-01-10T23:02:05.739Z,101083.05
2018-01-10T23:04:32.788Z,101080.03
2018-01-10T23:06:59.053Z,101078.73
2018-01-10T23:09:25.346Z,101079.17
2018-01-10T23:11:51.651Z,101078.30
2018-01-10T23:14:17.904Z,101077.48
2018-01-10T23:16:44.181Z,101078.42
2018-01-10T23:19:11.190Z,101077.13
2018-01-10T23:21:37.459Z,101071.27
2018-01-10T23:24:04.454Z,101078.30
2018-01-10T23:26:30.725Z,101075.98
2018-01-10T23:28:56.996Z,101076.34
2018-01-10T23:31:23.295Z,101082.19
2018-01-10T23:33:49.590Z,101083.69
2018-01-10T23:36:15.846Z,101083.77
2018-01-10T23:38:42.132Z,101090.95
2018-01-10T23:41:08.400Z,101096.81
2018-01-10T23:43:34.661Z,101099.84
2018-01-10T23:46:00.924Z,101102.50
2018-01-10T23:48:27.943Z,101093.67
2018-01-10T23:50:54.188Z,101095.83
2018-01-10T23:53:20.472Z,101098.89
2018-01-10T23:55:46.716Z,101098.50
2018-01-10T23:58:13.004Z,101101.28
